sensor_id;sensor_type;location;lat;lon;timestamp;P1;durP1;ratioP1;P2;durP2;ratioP2
49183;SDS011;35021;49.214;12.270;2023-02-28T00:00:21;2.58;;;2.00;;
49183;SDS011;35021;49.214;12.270;2023-02-28T00:02:48;2.60;;;2.13;;
49183;SDS011;35021;49.214;12.270;2023-02-28T00:05:17;3.35;;;2.13;;
49183;SDS011;35021;49.214;12.270;2023-02-28T00:07:46;3.08;;;2.50;;
49183;SDS011;35021;49.214;12.270;2023-02-28T00:10:15;2.28;;;1.70;;
49183;SDS011;35021;49.214;12.270;2023-02-28T00:12:47;3.95;;;2.40;;
49183;SDS011;35021;49.214;12.270;2023-02-28T00:15:15;2.88;;;2.00;;
49183;SDS011;35021;49.214;12.270;2023-02-28T00:17:42;3.17;;;2.17;;
49183;SDS011;35021;49.214;12.270;2023-02-28T00:20:10;3.15;;;2.33;;
49183;SDS011;35021;49.214;12.270;2023-02-28T00:22:39;3.05;;;2.10;;
49183;SDS011;35021;49.214;12.270;2023-02-28T00:25:07;3.38;;;2.28;;
49183;SDS011;35021;49.214;12.270;2023-02-28T00:27:39;3.42;;;2.47;;
49183;SDS011;35021;49.214;12.270;2023-02-28T00:30:09;2.75;;;1.95;;
49183;SDS011;35021;49.214;12.270;2023-02-28T00:32:38;3.25;;;2.20;;
49183;SDS011;35021;49.214;12.270;2023-02-28T00:35:05;3.60;;;2.08;;
49183;SDS011;35021;49.214;12.270;2023-02-28T00:37:32;4.35;;;2.20;;
49183;SDS011;35021;49.214;12.270;2023-02-28T00:39:59;2.72;;;2.00;;
49183;SDS011;35021;49.214;12.270;2023-02-28T00:42:26;3.92;;;2.50;;
49183;SDS011;35021;49.214;12.270;2023-02-28T00:44:53;3.05;;;2.35;;
49183;SDS011;35021;49.214;12.270;2023-02-28T00:47:20;3.03;;;2.38;;
49183;SDS011;35021;49.214;12.270;2023-02-28T00:49:47;2.50;;;2.13;;
49183;SDS011;35021;49.214;12.270;2023-02-28T00:52:14;2.88;;;2.20;;
49183;SDS011;35021;49.214;12.270;2023-02-28T00:54:41;3.25;;;2.60;;
49183;SDS011;35021;49.214;12.270;2023-02-28T00:57:08;3.15;;;2.20;;
49183;SDS011;35021;49.214;12.270;2023-02-28T00:59:34;3.60;;;2.33;;
49183;SDS011;35021;49.214;12.270;2023-02-28T01:02:01;2.53;;;2.03;;
49183;SDS011;35021;49.214;12.270;2023-02-28T01:04:28;2.70;;;2.00;;
49183;SDS011;35021;49.214;12.270;2023-02-28T01:06:55;3.53;;;2.30;;
49183;SDS011;35021;49.214;12.270;2023-02-28T01:09:22;2.85;;;2.13;;
49183;SDS011;35021;49.214;12.270;2023-02-28T01:11:49;3.00;;;2.00;;
49183;SDS011;35021;49.214;12.270;2023-02-28T01:14:16;3.58;;;2.53;;
49183;SDS011;35021;49.214;12.270;2023-02-28T01:16:44;3.45;;;2.40;;
49183;SDS011;35021;49.214;12.270;2023-02-28T01:19:10;3.70;;;2.28;;
49183;SDS011;35021;49.214;12.270;2023-02-28T01:21:37;4.28;;;2.38;;
49183;SDS011;35021;49.214;12.270;2023-02-28T01:24:05;3.33;;;2.25;;
49183;SDS011;35021;49.214;12.270;2023-02-28T01:26:33;5.30;;;2.10;;
49183;SDS011;35021;49.214;12.270;2023-02-28T01:28:59;3.78;;;2.67;;
49183;SDS011;35021;49.214;12.270;2023-02-28T01:31:26;3.00;;;2.25;;
49183;SDS011;35021;49.214;12.270;2023-02-28T01:33:54;3.53;;;2.50;;
49183;SDS011;35021;49.214;12.270;2023-02-28T01:36:22;3.30;;;2.20;;
49183;SDS011;35021;49.214;12.270;2023-02-28T01:38:50;3.47;;;2.30;;
49183;SDS011;35021;49.214;12.270;2023-02-28T01:43:56;2.65;;;1.90;;
49183;SDS011;35021;49.214;12.270;2023-02-28T01:46:25;3.40;;;2.15;;
49183;SDS011;35021;49.214;12.270;2023-02-28T01:49:03;3.90;;;2.75;;
49183;SDS011;35021;49.214;12.270;2023-02-28T01:51:37;2.95;;;2.10;;
49183;SDS011;35021;49.214;12.270;2023-02-28T01:54:14;3.72;;;2.45;;
49183;SDS011;35021;49.214;12.270;2023-02-28T01:56:44;2.85;;;2.20;;
49183;SDS011;35021;49.214;12.270;2023-02-28T01:59:21;3.03;;;2.53;;
49183;SDS011;35021;49.214;12.270;2023-02-28T02:01:58;3.80;;;2.63;;
49183;SDS011;35021;49.214;12.270;2023-02-28T02:04:27;3.28;;;2.33;;
49183;SDS011;35021;49.214;12.270;2023-02-28T02:07:00;3.65;;;2.47;;
49183;SDS011;35021;49.214;12.270;2023-02-28T02:09:27;4.65;;;2.70;;
49183;SDS011;35021;49.214;12.270;2023-02-28T02:11:54;2.67;;;2.28;;
49183;SDS011;35021;49.214;12.270;2023-02-28T02:17:10;3.88;;;2.80;;
49183;SDS011;35021;49.214;12.270;2023-02-28T02:25:28;4.13;;;2.50;;
49183;SDS011;35021;49.214;12.270;2023-02-28T02:33:20;3.58;;;2.50;;
49183;SDS011;35021;49.214;12.270;2023-02-28T02:38:39;3.45;;;2.50;;
49183;SDS011;35021;49.214;12.270;2023-02-28T02:41:29;3.17;;;2.45;;
49183;SDS011;35021;49.214;12.270;2023-02-28T02:44:05;3.67;;;2.63;;
49183;SDS011;35021;49.214;12.270;2023-02-28T02:46:49;3.75;;;2.75;;
49183;SDS011;35021;49.214;12.270;2023-02-28T02:49:21;3.33;;;2.55;;
49183;SDS011;35021;49.214;12.270;2023-02-28T02:51:54;3.58;;;2.33;;
49183;SDS011;35021;49.214;12.270;2023-02-28T02:54:25;4.13;;;3.00;;
49183;SDS011;35021;49.214;12.270;2023-02-28T02:56:59;3.13;;;2.30;;
49183;SDS011;35021;49.214;12.270;2023-02-28T02:59:29;2.75;;;2.30;;
49183;SDS011;35021;49.214;12.270;2023-02-28T03:01:59;4.18;;;2.47;;
49183;SDS011;35021;49.214;12.270;2023-02-28T03:04:34;3.83;;;2.33;;
49183;SDS011;35021;49.214;12.270;2023-02-28T03:07:08;3.05;;;2.25;;
49183;SDS011;35021;49.214;12.270;2023-02-28T03:09:35;4.45;;;2.80;;
49183;SDS011;35021;49.214;12.270;2023-02-28T03:12:02;4.38;;;2.92;;
49183;SDS011;35021;49.214;12.270;2023-02-28T03:20:29;5.40;;;3.83;;
49183;SDS011;35021;49.214;12.270;2023-02-28T03:22:59;5.18;;;4.13;;
49183;SDS011;35021;49.214;12.270;2023-02-28T03:30:56;4.53;;;3.08;;
49183;SDS011;35021;49.214;12.270;2023-02-28T03:33:28;4.35;;;3.00;;
49183;SDS011;35021;49.214;12.270;2023-02-28T03:36:04;2.95;;;2.50;;
49183;SDS011;35021;49.214;12.270;2023-02-28T03:38:46;4.78;;;3.45;;
49183;SDS011;35021;49.214;12.270;2023-02-28T03:41:22;3.72;;;2.80;;
49183;SDS011;35021;49.214;12.270;2023-02-28T03:43:54;4.30;;;3.00;;
49183;SDS011;35021;49.214;12.270;2023-02-28T03:46:26;4.43;;;2.85;;
49183;SDS011;35021;49.214;12.270;2023-02-28T03:49:07;3.20;;;2.90;;
49183;SDS011;35021;49.214;12.270;2023-02-28T03:51:40;4.85;;;3.10;;
49183;SDS011;35021;49.214;12.270;2023-02-28T03:54:10;3.40;;;2.30;;
49183;SDS011;35021;49.214;12.270;2023-02-28T03:56:52;3.25;;;2.42;;
49183;SDS011;35021;49.214;12.270;2023-02-28T03:59:43;3.65;;;2.85;;
49183;SDS011;35021;49.214;12.270;2023-02-28T04:02:18;3.65;;;2.63;;
49183;SDS011;35021;49.214;12.270;2023-02-28T04:04:45;3.50;;;2.58;;
49183;SDS011;35021;49.214;12.270;2023-02-28T04:07:15;3.83;;;2.80;;
49183;SDS011;35021;49.214;12.270;2023-02-28T04:09:43;4.32;;;2.83;;
49183;SDS011;35021;49.214;12.270;2023-02-28T04:12:10;4.30;;;3.42;;
49183;SDS011;35021;49.214;12.270;2023-02-28T04:14:37;4.57;;;2.95;;
49183;SDS011;35021;49.214;12.270;2023-02-28T04:17:04;4.35;;;3.50;;
49183;SDS011;35021;49.214;12.270;2023-02-28T04:19:31;4.43;;;3.28;;
49183;SDS011;35021;49.214;12.270;2023-02-28T04:21:57;3.72;;;2.78;;
49183;SDS011;35021;49.214;12.270;2023-02-28T04:24:25;3.65;;;2.83;;
49183;SDS011;35021;49.214;12.270;2023-02-28T04:26:54;4.40;;;3.28;;
49183;SDS011;35021;49.214;12.270;2023-02-28T04:29:31;3.00;;;2.47;;
49183;SDS011;35021;49.214;12.270;2023-02-28T04:31:58;4.32;;;3.00;;
49183;SDS011;35021;49.214;12.270;2023-02-28T04:34:27;3.80;;;3.05;;
49183;SDS011;35021;49.214;12.270;2023-02-28T04:36:55;3.97;;;2.88;;
49183;SDS011;35021;49.214;12.270;2023-02-28T04:39:38;4.10;;;2.75;;
49183;SDS011;35021;49.214;12.270;2023-02-28T04:42:05;3.30;;;2.92;;
49183;SDS011;35021;49.214;12.270;2023-02-28T04:44:32;4.10;;;3.10;;
49183;SDS011;35021;49.214;12.270;2023-02-28T04:46:59;3.92;;;2.90;;
49183;SDS011;35021;49.214;12.270;2023-02-28T04:49:26;3.78;;;3.10;;
49183;SDS011;35021;49.214;12.270;2023-02-28T04:51:53;3.83;;;2.95;;
49183;SDS011;35021;49.214;12.270;2023-02-28T04:54:20;3.75;;;2.97;;
49183;SDS011;35021;49.214;12.270;2023-02-28T04:56:46;3.65;;;2.80;;
49183;SDS011;35021;49.214;12.270;2023-02-28T04:59:16;4.00;;;3.20;;
49183;SDS011;35021;49.214;12.270;2023-02-28T05:01:45;3.83;;;2.83;;
49183;SDS011;35021;49.214;12.270;2023-02-28T05:04:14;3.30;;;2.70;;
49183;SDS011;35021;49.214;12.270;2023-02-28T05:06:41;3.10;;;2.80;;
49183;SDS011;35021;49.214;12.270;2023-02-28T05:09:08;3.75;;;2.88;;
49183;SDS011;35021;49.214;12.270;2023-02-28T05:11:37;4.85;;;3.22;;
49183;SDS011;35021;49.214;12.270;2023-02-28T05:14:06;3.78;;;2.97;;
49183;SDS011;35021;49.214;12.270;2023-02-28T05:16:37;4.82;;;3.70;;
49183;SDS011;35021;49.214;12.270;2023-02-28T05:19:05;5.28;;;3.33;;
49183;SDS011;35021;49.214;12.270;2023-02-28T05:21:33;3.60;;;3.00;;
49183;SDS011;35021;49.214;12.270;2023-02-28T05:24:06;4.47;;;3.70;;
49183;SDS011;35021;49.214;12.270;2023-02-28T05:26:38;4.93;;;3.78;;
49183;SDS011;35021;49.214;12.270;2023-02-28T05:29:06;5.45;;;3.90;;
49183;SDS011;35021;49.214;12.270;2023-02-28T05:31:34;4.72;;;3.70;;
49183;SDS011;35021;49.214;12.270;2023-02-28T05:34:01;4.78;;;3.60;;
49183;SDS011;35021;49.214;12.270;2023-02-28T05:36:30;4.13;;;3.42;;
49183;SDS011;35021;49.214;12.270;2023-02-28T05:38:57;5.00;;;3.60;;
49183;SDS011;35021;49.214;12.270;2023-02-28T05:41:24;5.15;;;3.85;;
49183;SDS011;35021;49.214;12.270;2023-02-28T05:43:52;5.00;;;3.90;;
49183;SDS011;35021;49.214;12.270;2023-02-28T05:46:19;5.20;;;3.38;;
49183;SDS011;35021;49.214;12.270;2023-02-28T05:48:47;4.43;;;3.33;;
49183;SDS011;35021;49.214;12.270;2023-02-28T05:51:14;4.45;;;3.60;;
49183;SDS011;35021;49.214;12.270;2023-02-28T05:53:41;6.00;;;3.60;;
49183;SDS011;35021;49.214;12.270;2023-02-28T05:56:08;3.28;;;2.80;;
49183;SDS011;35021;49.214;12.270;2023-02-28T05:58:35;3.28;;;2.97;;
49183;SDS011;35021;49.214;12.270;2023-02-28T06:01:19;3.67;;;3.17;;
49183;SDS011;35021;49.214;12.270;2023-02-28T06:04:00;4.30;;;3.17;;
49183;SDS011;35021;49.214;12.270;2023-02-28T06:06:28;4.72;;;3.33;;
49183;SDS011;35021;49.214;12.270;2023-02-28T06:08:56;3.45;;;2.70;;
49183;SDS011;35021;49.214;12.270;2023-02-28T06:11:23;4.72;;;2.75;;
49183;SDS011;35021;49.214;12.270;2023-02-28T06:13:54;5.05;;;2.88;;
49183;SDS011;35021;49.214;12.270;2023-02-28T06:16:23;4.88;;;2.80;;
49183;SDS011;35021;49.214;12.270;2023-02-28T06:18:50;3.85;;;2.95;;
49183;SDS011;35021;49.214;12.270;2023-02-28T06:21:18;4.47;;;2.85;;
49183;SDS011;35021;49.214;12.270;2023-02-28T06:23:45;3.13;;;2.35;;
49183;SDS011;35021;49.214;12.270;2023-02-28T06:26:12;3.75;;;2.70;;
49183;SDS011;35021;49.214;12.270;2023-02-28T06:28:39;4.25;;;3.08;;
49183;SDS011;35021;49.214;12.270;2023-02-28T06:31:07;3.70;;;2.65;;
49183;SDS011;35021;49.214;12.270;2023-02-28T06:33:38;3.58;;;3.08;;
49183;SDS011;35021;49.214;12.270;2023-02-28T06:36:06;3.60;;;2.88;;
49183;SDS011;35021;49.214;12.270;2023-02-28T06:38:33;4.82;;;3.22;;
49183;SDS011;35021;49.214;12.270;2023-02-28T06:41:01;4.07;;;2.83;;
49183;SDS011;35021;49.214;12.270;2023-02-28T06:43:30;5.45;;;3.10;;
49183;SDS011;35021;49.214;12.270;2023-02-28T06:45:58;4.13;;;3.08;;
49183;SDS011;35021;49.214;12.270;2023-02-28T06:48:27;3.60;;;3.20;;
49183;SDS011;35021;49.214;12.270;2023-02-28T06:51:07;4.22;;;3.00;;
49183;SDS011;35021;49.214;12.270;2023-02-28T06:53:36;4.65;;;3.30;;
49183;SDS011;35021;49.214;12.270;2023-02-28T06:56:03;3.55;;;2.88;;
49183;SDS011;35021;49.214;12.270;2023-02-28T06:58:32;4.60;;;3.10;;
49183;SDS011;35021;49.214;12.270;2023-02-28T07:01:00;4.22;;;3.17;;
49183;SDS011;35021;49.214;12.270;2023-02-28T07:03:27;4.15;;;3.72;;
49183;SDS011;35021;49.214;12.270;2023-02-28T07:05:54;3.72;;;3.20;;
49183;SDS011;35021;49.214;12.270;2023-02-28T07:08:23;4.82;;;3.30;;
49183;SDS011;35021;49.214;12.270;2023-02-28T07:10:56;4.05;;;3.28;;
49183;SDS011;35021;49.214;12.270;2023-02-28T07:13:24;4.75;;;3.95;;
49183;SDS011;35021;49.214;12.270;2023-02-28T07:15:55;4.15;;;3.20;;
49183;SDS011;35021;49.214;12.270;2023-02-28T07:18:23;5.40;;;3.10;;
49183;SDS011;35021;49.214;12.270;2023-02-28T07:20:51;4.82;;;3.70;;
49183;SDS011;35021;49.214;12.270;2023-02-28T07:23:18;3.88;;;3.22;;
49183;SDS011;35021;49.214;12.270;2023-02-28T07:25:46;4.57;;;3.50;;
49183;SDS011;35021;49.214;12.270;2023-02-28T07:28:13;5.53;;;3.72;;
49183;SDS011;35021;49.214;12.270;2023-02-28T07:30:40;4.63;;;3.50;;
49183;SDS011;35021;49.214;12.270;2023-02-28T07:33:19;6.22;;;3.85;;
49183;SDS011;35021;49.214;12.270;2023-02-28T07:35:46;3.80;;;3.03;;
49183;SDS011;35021;49.214;12.270;2023-02-28T07:38:13;4.60;;;3.60;;
49183;SDS011;35021;49.214;12.270;2023-02-28T07:40:40;4.30;;;3.10;;
49183;SDS011;35021;49.214;12.270;2023-02-28T07:43:07;3.20;;;2.85;;
49183;SDS011;35021;49.214;12.270;2023-02-28T07:45:33;5.40;;;3.38;;
49183;SDS011;35021;49.214;12.270;2023-02-28T07:48:00;4.43;;;3.17;;
49183;SDS011;35021;49.214;12.270;2023-02-28T07:50:27;5.03;;;3.33;;
49183;SDS011;35021;49.214;12.270;2023-02-28T07:52:57;5.75;;;4.10;;
49183;SDS011;35021;49.214;12.270;2023-02-28T07:55:25;5.63;;;3.65;;
49183;SDS011;35021;49.214;12.270;2023-02-28T07:57:52;6.10;;;3.72;;
49183;SDS011;35021;49.214;12.270;2023-02-28T08:00:20;4.22;;;3.53;;
49183;SDS011;35021;49.214;12.270;2023-02-28T08:02:47;6.38;;;3.83;;
49183;SDS011;35021;49.214;12.270;2023-02-28T08:05:14;4.47;;;3.92;;
49183;SDS011;35021;49.214;12.270;2023-02-28T08:07:41;5.57;;;3.70;;
49183;SDS011;35021;49.214;12.270;2023-02-28T08:10:08;4.45;;;3.30;;
49183;SDS011;35021;49.214;12.270;2023-02-28T08:12:36;4.05;;;3.47;;
49183;SDS011;35021;49.214;12.270;2023-02-28T08:15:03;4.82;;;3.83;;
49183;SDS011;35021;49.214;12.270;2023-02-28T08:17:30;5.53;;;3.80;;
49183;SDS011;35021;49.214;12.270;2023-02-28T08:20:00;5.47;;;3.63;;
49183;SDS011;35021;49.214;12.270;2023-02-28T08:22:27;4.75;;;3.58;;
49183;SDS011;35021;49.214;12.270;2023-02-28T08:24:54;4.25;;;3.45;;
49183;SDS011;35021;49.214;12.270;2023-02-28T08:27:21;4.78;;;3.60;;
49183;SDS011;35021;49.214;12.270;2023-02-28T08:29:49;5.38;;;3.72;;
49183;SDS011;35021;49.214;12.270;2023-02-28T08:32:16;4.95;;;3.50;;
49183;SDS011;35021;49.214;12.270;2023-02-28T08:34:55;6.50;;;3.92;;
49183;SDS011;35021;49.214;12.270;2023-02-28T08:37:22;4.80;;;3.58;;
49183;SDS011;35021;49.214;12.270;2023-02-28T08:39:49;4.47;;;3.40;;
49183;SDS011;35021;49.214;12.270;2023-02-28T08:42:15;5.53;;;3.95;;
49183;SDS011;35021;49.214;12.270;2023-02-28T08:44:42;5.05;;;3.63;;
49183;SDS011;35021;49.214;12.270;2023-02-28T08:47:09;6.65;;;4.00;;
49183;SDS011;35021;49.214;12.270;2023-02-28T08:49:36;5.75;;;3.85;;
49183;SDS011;35021;49.214;12.270;2023-02-28T08:52:03;6.85;;;3.92;;
49183;SDS011;35021;49.214;12.270;2023-02-28T08:54:30;6.32;;;4.10;;
49183;SDS011;35021;49.214;12.270;2023-02-28T08:56:59;4.55;;;3.92;;
49183;SDS011;35021;49.214;12.270;2023-02-28T08:59:27;4.75;;;3.90;;
49183;SDS011;35021;49.214;12.270;2023-02-28T09:01:55;4.82;;;3.95;;
49183;SDS011;35021;49.214;12.270;2023-02-28T09:04:22;7.03;;;4.80;;
49183;SDS011;35021;49.214;12.270;2023-02-28T09:06:50;6.43;;;4.10;;
49183;SDS011;35021;49.214;12.270;2023-02-28T09:09:17;6.55;;;3.95;;
49183;SDS011;35021;49.214;12.270;2023-02-28T09:11:44;5.13;;;3.70;;
49183;SDS011;35021;49.214;12.270;2023-02-28T09:14:11;5.05;;;4.45;;
49183;SDS011;35021;49.214;12.270;2023-02-28T09:16:38;5.85;;;4.13;;
49183;SDS011;35021;49.214;12.270;2023-02-28T09:19:05;4.93;;;3.95;;
49183;SDS011;35021;49.214;12.270;2023-02-28T09:21:32;5.78;;;4.30;;
49183;SDS011;35021;49.214;12.270;2023-02-28T09:23:58;5.32;;;4.22;;
49183;SDS011;35021;49.214;12.270;2023-02-28T09:26:26;6.72;;;3.95;;
49183;SDS011;35021;49.214;12.270;2023-02-28T09:29:07;5.82;;;3.85;;
49183;SDS011;35021;49.214;12.270;2023-02-28T09:31:34;4.65;;;3.47;;
49183;SDS011;35021;49.214;12.270;2023-02-28T09:34:01;5.72;;;4.47;;
49183;SDS011;35021;49.214;12.270;2023-02-28T09:36:30;6.85;;;3.95;;
49183;SDS011;35021;49.214;12.270;2023-02-28T09:39:09;7.22;;;4.18;;
49183;SDS011;35021;49.214;12.270;2023-02-28T09:41:41;7.00;;;3.85;;
49183;SDS011;35021;49.214;12.270;2023-02-28T09:44:20;4.68;;;4.05;;
49183;SDS011;35021;49.214;12.270;2023-02-28T09:47:10;5.68;;;4.10;;
49183;SDS011;35021;49.214;12.270;2023-02-28T09:49:47;5.90;;;4.15;;
49183;SDS011;35021;49.214;12.270;2023-02-28T09:52:17;5.30;;;3.72;;
49183;SDS011;35021;49.214;12.270;2023-02-28T09:54:47;4.88;;;4.05;;
49183;SDS011;35021;49.214;12.270;2023-02-28T10:00:18;5.25;;;4.03;;
49183;SDS011;35021;49.214;12.270;2023-02-28T10:05:51;6.47;;;4.53;;
49183;SDS011;35021;49.214;12.270;2023-02-28T10:08:27;6.50;;;4.07;;
49183;SDS011;35021;49.214;12.270;2023-02-28T10:10:58;6.22;;;4.32;;
49183;SDS011;35021;49.214;12.270;2023-02-28T10:16:06;5.05;;;3.78;;
49183;SDS011;35021;49.214;12.270;2023-02-28T10:18:42;5.75;;;4.63;;
49183;SDS011;35021;49.214;12.270;2023-02-28T10:21:26;5.60;;;4.40;;
49183;SDS011;35021;49.214;12.270;2023-02-28T10:24:01;4.78;;;3.80;;
49183;SDS011;35021;49.214;12.270;2023-02-28T10:26:34;7.85;;;4.70;;
49183;SDS011;35021;49.214;12.270;2023-02-28T10:29:02;6.47;;;4.18;;
49183;SDS011;35021;49.214;12.270;2023-02-28T10:31:29;6.45;;;4.68;;
49183;SDS011;35021;49.214;12.270;2023-02-28T10:33:56;5.00;;;4.10;;
49183;SDS011;35021;49.214;12.270;2023-02-28T10:36:23;6.90;;;4.15;;
49183;SDS011;35021;49.214;12.270;2023-02-28T10:38:50;7.93;;;4.63;;
49183;SDS011;35021;49.214;12.270;2023-02-28T10:41:27;5.60;;;4.13;;
49183;SDS011;35021;49.214;12.270;2023-02-28T10:44:36;4.63;;;3.90;;
49183;SDS011;35021;49.214;12.270;2023-02-28T10:46:55;6.13;;;3.70;;
49183;SDS011;35021;49.214;12.270;2023-02-28T10:49:24;5.82;;;3.90;;
49183;SDS011;35021;49.214;12.270;2023-02-28T10:51:56;7.47;;;4.20;;
49183;SDS011;35021;49.214;12.270;2023-02-28T11:00:19;5.68;;;4.15;;
49183;SDS011;35021;49.214;12.270;2023-02-28T11:02:45;5.53;;;4.43;;
49183;SDS011;35021;49.214;12.270;2023-02-28T11:05:23;5.43;;;4.28;;
49183;SDS011;35021;49.214;12.270;2023-02-28T11:08:06;4.80;;;4.13;;
49183;SDS011;35021;49.214;12.270;2023-02-28T11:10:44;4.70;;;4.13;;
49183;SDS011;35021;49.214;12.270;2023-02-28T11:13:25;5.68;;;4.40;;
49183;SDS011;35021;49.214;12.270;2023-02-28T11:15:55;6.70;;;4.78;;
49183;SDS011;35021;49.214;12.270;2023-02-28T11:18:29;6.03;;;4.13;;
49183;SDS011;35021;49.214;12.270;2023-02-28T11:21:00;5.28;;;4.32;;
49183;SDS011;35021;49.214;12.270;2023-02-28T11:23:30;5.10;;;4.10;;
49183;SDS011;35021;49.214;12.270;2023-02-28T11:26:03;5.13;;;4.18;;
49183;SDS011;35021;49.214;12.270;2023-02-28T11:28:39;6.00;;;4.40;;
49183;SDS011;35021;49.214;12.270;2023-02-28T11:33:47;5.07;;;4.15;;
49183;SDS011;35021;49.214;12.270;2023-02-28T11:38:53;5.25;;;4.53;;
49183;SDS011;35021;49.214;12.270;2023-02-28T11:46:47;5.53;;;4.40;;
49183;SDS011;35021;49.214;12.270;2023-02-28T11:49:32;6.75;;;4.78;;
49183;SDS011;35021;49.214;12.270;2023-02-28T12:02:59;5.65;;;4.43;;
49183;SDS011;35021;49.214;12.270;2023-02-28T12:08:20;5.57;;;4.32;;
49183;SDS011;35021;49.214;12.270;2023-02-28T12:25:13;5.90;;;4.57;;
49183;SDS011;35021;49.214;12.270;2023-02-28T12:27:58;4.38;;;3.70;;
49183;SDS011;35021;49.214;12.270;2023-02-28T12:30:27;7.00;;;4.40;;
49183;SDS011;35021;49.214;12.270;2023-02-28T12:33:06;6.38;;;4.93;;
49183;SDS011;35021;49.214;12.270;2023-02-28T12:35:41;5.90;;;4.05;;
49183;SDS011;35021;49.214;12.270;2023-02-28T12:38:15;4.95;;;4.00;;
49183;SDS011;35021;49.214;12.270;2023-02-28T12:40:53;4.45;;;4.00;;
49183;SDS011;35021;49.214;12.270;2023-02-28T12:43:26;5.18;;;4.22;;
49183;SDS011;35021;49.214;12.270;2023-02-28T12:46:00;4.68;;;3.95;;
49183;SDS011;35021;49.214;12.270;2023-02-28T12:51:14;4.63;;;4.05;;
49183;SDS011;35021;49.214;12.270;2023-02-28T12:53:51;5.28;;;4.10;;
49183;SDS011;35021;49.214;12.270;2023-02-28T12:58:57;5.55;;;4.65;;
49183;SDS011;35021;49.214;12.270;2023-02-28T13:10:12;4.97;;;3.72;;
49183;SDS011;35021;49.214;12.270;2023-02-28T13:12:52;4.72;;;3.95;;
49183;SDS011;35021;49.214;12.270;2023-02-28T13:15:22;5.47;;;4.22;;
49183;SDS011;35021;49.214;12.270;2023-02-28T13:17:55;4.80;;;3.60;;
49183;SDS011;35021;49.214;12.270;2023-02-28T13:20:37;5.25;;;3.42;;
49183;SDS011;35021;49.214;12.270;2023-02-28T13:27:10;5.60;;;4.40;;
49183;SDS011;35021;49.214;12.270;2023-02-28T13:32:18;6.00;;;4.00;;
49183;SDS011;35021;49.214;12.270;2023-02-28T13:34:30;4.95;;;4.13;;
49183;SDS011;35021;49.214;12.270;2023-02-28T13:39:52;4.93;;;4.10;;
49183;SDS011;35021;49.214;12.270;2023-02-28T13:45:26;4.90;;;4.40;;
49183;SDS011;35021;49.214;12.270;2023-02-28T13:48:14;5.18;;;3.90;;
49183;SDS011;35021;49.214;12.270;2023-02-28T13:50:42;5.10;;;4.10;;
49183;SDS011;35021;49.214;12.270;2023-02-28T13:58:37;4.88;;;4.10;;
49183;SDS011;35021;49.214;12.270;2023-02-28T14:01:23;5.97;;;4.30;;
49183;SDS011;35021;49.214;12.270;2023-02-28T14:06:58;5.22;;;4.55;;
49183;SDS011;35021;49.214;12.270;2023-02-28T14:09:27;5.22;;;4.20;;
49183;SDS011;35021;49.214;12.270;2023-02-28T14:18:03;4.60;;;3.83;;
49183;SDS011;35021;49.214;12.270;2023-02-28T14:20:44;5.43;;;4.40;;
49183;SDS011;35021;49.214;12.270;2023-02-28T14:32:02;6.22;;;4.53;;
49183;SDS011;35021;49.214;12.270;2023-02-28T14:37:09;5.90;;;4.88;;
49183;SDS011;35021;49.214;12.270;2023-02-28T14:39:41;4.75;;;4.00;;
49183;SDS011;35021;49.214;12.270;2023-02-28T14:45:19;5.65;;;4.82;;
49183;SDS011;35021;49.214;12.270;2023-02-28T14:47:48;4.97;;;4.10;;
49183;SDS011;35021;49.214;12.270;2023-02-28T14:50:17;5.40;;;4.35;;
49183;SDS011;35021;49.214;12.270;2023-02-28T14:52:51;6.68;;;4.53;;
49183;SDS011;35021;49.214;12.270;2023-02-28T14:55:20;6.07;;;4.40;;
49183;SDS011;35021;49.214;12.270;2023-02-28T14:57:59;6.18;;;4.57;;
49183;SDS011;35021;49.214;12.270;2023-02-28T15:00:30;6.05;;;4.57;;
49183;SDS011;35021;49.214;12.270;2023-02-28T15:02:59;5.43;;;4.00;;
49183;SDS011;35021;49.214;12.270;2023-02-28T15:05:34;6.95;;;4.70;;
49183;SDS011;35021;49.214;12.270;2023-02-28T15:08:11;5.43;;;4.20;;
49183;SDS011;35021;49.214;12.270;2023-02-28T15:10:56;5.55;;;4.47;;
49183;SDS011;35021;49.214;12.270;2023-02-28T15:13:45;5.15;;;4.65;;
49183;SDS011;35021;49.214;12.270;2023-02-28T15:16:19;5.28;;;4.45;;
49183;SDS011;35021;49.214;12.270;2023-02-28T15:21:32;6.22;;;4.30;;
49183;SDS011;35021;49.214;12.270;2023-02-28T15:24:06;5.28;;;4.78;;
49183;SDS011;35021;49.214;12.270;2023-02-28T15:26:42;4.90;;;4.40;;
49183;SDS011;35021;49.214;12.270;2023-02-28T15:29:14;6.63;;;5.40;;
49183;SDS011;35021;49.214;12.270;2023-02-28T15:31:46;7.32;;;5.32;;
49183;SDS011;35021;49.214;12.270;2023-02-28T15:34:33;6.05;;;5.40;;
49183;SDS011;35021;49.214;12.270;2023-02-28T15:42:36;5.82;;;5.00;;
49183;SDS011;35021;49.214;12.270;2023-02-28T15:45:03;5.80;;;5.03;;
49183;SDS011;35021;49.214;12.270;2023-02-28T15:47:31;6.07;;;5.47;;
49183;SDS011;35021;49.214;12.270;2023-02-28T15:49:59;7.65;;;5.57;;
49183;SDS011;35021;49.214;12.270;2023-02-28T15:52:29;6.97;;;5.63;;
49183;SDS011;35021;49.214;12.270;2023-02-28T15:55:08;7.50;;;6.28;;
49183;SDS011;35021;49.214;12.270;2023-02-28T15:57:39;7.07;;;5.97;;
49183;SDS011;35021;49.214;12.270;2023-02-28T16:00:10;6.15;;;5.55;;
49183;SDS011;35021;49.214;12.270;2023-02-28T16:02:42;6.63;;;5.43;;
49183;SDS011;35021;49.214;12.270;2023-02-28T16:07:37;6.40;;;5.40;;
49183;SDS011;35021;49.214;12.270;2023-02-28T16:10:06;8.25;;;5.65;;
49183;SDS011;35021;49.214;12.270;2023-02-28T16:12:35;6.90;;;5.78;;
49183;SDS011;35021;49.214;12.270;2023-02-28T16:15:05;7.13;;;5.50;;
49183;SDS011;35021;49.214;12.270;2023-02-28T16:17:52;6.55;;;5.78;;
49183;SDS011;35021;49.214;12.270;2023-02-28T16:20:21;6.13;;;5.50;;
49183;SDS011;35021;49.214;12.270;2023-02-28T16:22:50;6.22;;;5.63;;
49183;SDS011;35021;49.214;12.270;2023-02-28T16:25:19;8.13;;;6.03;;
49183;SDS011;35021;49.214;12.270;2023-02-28T16:27:52;7.43;;;5.80;;
49183;SDS011;35021;49.214;12.270;2023-02-28T16:30:24;7.22;;;5.28;;
49183;SDS011;35021;49.214;12.270;2023-02-28T16:32:54;6.15;;;5.55;;
49183;SDS011;35021;49.214;12.270;2023-02-28T16:35:21;6.15;;;5.53;;
49183;SDS011;35021;49.214;12.270;2023-02-28T16:37:50;6.50;;;5.60;;
49183;SDS011;35021;49.214;12.270;2023-02-28T16:40:18;8.43;;;5.82;;
49183;SDS011;35021;49.214;12.270;2023-02-28T16:42:48;6.22;;;5.10;;
49183;SDS011;35021;49.214;12.270;2023-02-28T16:45:23;6.50;;;5.65;;
49183;SDS011;35021;49.214;12.270;2023-02-28T16:47:52;6.93;;;5.75;;
49183;SDS011;35021;49.214;12.270;2023-02-28T16:50:21;6.80;;;6.10;;
49183;SDS011;35021;49.214;12.270;2023-02-28T16:52:50;7.85;;;6.00;;
49183;SDS011;35021;49.214;12.270;2023-02-28T16:55:21;6.32;;;5.55;;
49183;SDS011;35021;49.214;12.270;2023-02-28T16:57:57;7.07;;;5.35;;
49183;SDS011;35021;49.214;12.270;2023-02-28T17:00:27;7.15;;;5.18;;
49183;SDS011;35021;49.214;12.270;2023-02-28T17:02:55;6.55;;;5.88;;
49183;SDS011;35021;49.214;12.270;2023-02-28T17:05:23;8.30;;;6.00;;
49183;SDS011;35021;49.214;12.270;2023-02-28T17:07:50;6.43;;;5.72;;
49183;SDS011;35021;49.214;12.270;2023-02-28T17:10:18;6.25;;;5.65;;
49183;SDS011;35021;49.214;12.270;2023-02-28T17:12:49;6.97;;;5.78;;
49183;SDS011;35021;49.214;12.270;2023-02-28T17:15:17;7.15;;;5.68;;
49183;SDS011;35021;49.214;12.270;2023-02-28T17:17:46;7.03;;;5.80;;
49183;SDS011;35021;49.214;12.270;2023-02-28T17:20:15;6.28;;;5.40;;
49183;SDS011;35021;49.214;12.270;2023-02-28T17:22:44;6.28;;;5.68;;